Hovedside
METAR-TAF:

METAR-TAF

Lufthavner :

Mo i Rana lufthavn. Røssvoll

Mo i Rana, Norge

breddegrad: 66-22N, lengdegrad: 014-18E, høyde over havet: 7 m

Gjeldene værobservasjon

Denne rapporten ble laget for 25 minutter siden, klokken 18:20 UTC
Vind 2 kt fra Vest
Temperatur -6°C
Luftfuktighet 100%
Trykk 1036 hPa
Sikt 10 km eller mer
Spredte skyer i en høyde av 2400 ft

METAR: ENRA 191820Z 26002KT 9999 SCT024 M06/M06 Q1036

Tid: 19:45 (18:45 UTC)

Varsel

Denne rapporten ble laget for 1 time og 45 minutter siden, klokken 17:00 UTC
Varsel gyldig fra 19. klokken 18 UTC til 19. klokken 23 UTC
Vind 5 kt fra skiftende retning
Sikt 10 km eller mer
Få skyer i en høyde av 1000 ft

TAF: ENRA 191700Z 1918/1923 VRB05KT 9999 FEW010

Værobservasjoner og værvarsel for over 4000 flyplasser (METAR- og TAF-rapporter).

Tilgjengelige stasjoner er representert av de røde og gule prikkene på kartet.

Hold musepekeren over prikken for å se navnet på stasjonen.

Klikk så for å se værobservasjoner og -varsler.

For å forandre kartet kan du klikke på den grønne knappen med svart kryss for å zoome inn, på den grønne knappen med strek for å zoome ut, eller på de grønne pilene for å se tilstøtende kart.


METAR-TAF: